sensor_id;sensor_type;location;lat;lon;timestamp;pressure;altitude;pressure_sealevel;temperature;humidity
61478;BME280;47345;52.334;10.392;2023-11-22T00:00:11;101893.25;;;2.71;84.86
61478;BME280;47345;52.334;10.392;2023-11-22T00:02:42;101895.08;;;2.71;85.20
61478;BME280;47345;52.334;10.392;2023-11-22T00:05:13;101900.55;;;2.70;84.91
61478;BME280;47345;52.334;10.392;2023-11-22T00:07:44;101901.83;;;2.68;84.80
61478;BME280;47345;52.334;10.392;2023-11-22T00:10:14;101905.46;;;2.65;84.94
61478;BME280;47345;52.334;10.392;2023-11-22T00:12:45;101908.86;;;2.61;85.14
61478;BME280;47345;52.334;10.392;2023-11-22T00:15:16;101909.52;;;2.57;85.38
61478;BME280;47345;52.334;10.392;2023-11-22T00:17:47;101916.23;;;2.54;85.32
61478;BME280;47345;52.334;10.392;2023-11-22T00:20:19;101923.79;;;2.52;85.77
61478;BME280;47345;52.334;10.392;2023-11-22T00:22:50;101925.83;;;2.49;85.74
61478;BME280;47345;52.334;10.392;2023-11-22T00:25:21;101927.98;;;2.47;85.81
61478;BME280;47345;52.334;10.392;2023-11-22T00:27:52;101932.39;;;2.46;86.03
61478;BME280;47345;52.334;10.392;2023-11-22T00:30:22;101934.46;;;2.45;86.31
61478;BME280;47345;52.334;10.392;2023-11-22T00:32:53;101935.61;;;2.44;86.62
61478;BME280;47345;52.334;10.392;2023-11-22T00:35:24;101939.62;;;2.44;86.73
61478;BME280;47345;52.334;10.392;2023-11-22T00:37:55;101938.19;;;2.43;86.70
61478;BME280;47345;52.334;10.392;2023-11-22T00:40:26;101945.11;;;2.42;86.72
61478;BME280;47345;52.334;10.392;2023-11-22T00:42:56;101943.32;;;2.42;86.92
61478;BME280;47345;52.334;10.392;2023-11-22T00:45:27;101939.56;;;2.42;86.68
61478;BME280;47345;52.334;10.392;2023-11-22T00:47:59;101931.88;;;2.41;86.96
61478;BME280;47345;52.334;10.392;2023-11-22T00:50:30;101928.77;;;2.39;86.64
61478;BME280;47345;52.334;10.392;2023-11-22T00:53:00;101933.16;;;2.39;86.84
61478;BME280;47345;52.334;10.392;2023-11-22T00:55:31;101938.06;;;2.38;86.82
61478;BME280;47345;52.334;10.392;2023-11-22T00:58:01;101938.97;;;2.38;86.98
61478;BME280;47345;52.334;10.392;2023-11-22T01:00:33;101924.77;;;2.38;86.82
61478;BME280;47345;52.334;10.392;2023-11-22T01:03:04;101918.52;;;2.39;86.84
61478;BME280;47345;52.334;10.392;2023-11-22T01:05:35;101925.59;;;2.41;86.82
61478;BME280;47345;52.334;10.392;2023-11-22T01:08:06;101926.30;;;2.41;86.61
61478;BME280;47345;52.334;10.392;2023-11-22T01:10:37;101927.06;;;2.41;86.39
61478;BME280;47345;52.334;10.392;2023-11-22T01:13:08;101926.29;;;2.39;86.33
61478;BME280;47345;52.334;10.392;2023-11-22T01:15:38;101933.38;;;2.38;86.28
61478;BME280;47345;52.334;10.392;2023-11-22T01:18:09;101937.11;;;2.36;86.67
61478;BME280;47345;52.334;10.392;2023-11-22T01:20:39;101939.47;;;2.34;86.36
61478;BME280;47345;52.334;10.392;2023-11-22T01:23:10;101942.61;;;2.33;86.53
61478;BME280;47345;52.334;10.392;2023-11-22T01:25:41;101948.60;;;2.32;86.58
61478;BME280;47345;52.334;10.392;2023-11-22T01:28:11;101957.34;;;2.33;86.71
61478;BME280;47345;52.334;10.392;2023-11-22T01:30:42;101963.45;;;2.33;87.10
61478;BME280;47345;52.334;10.392;2023-11-22T01:33:15;101969.45;;;2.33;87.33
61478;BME280;47345;52.334;10.392;2023-11-22T01:35:46;101974.79;;;2.31;87.35
61478;BME280;47345;52.334;10.392;2023-11-22T01:38:17;101981.65;;;2.29;87.76
61478;BME280;47345;52.334;10.392;2023-11-22T01:40:50;101979.11;;;2.27;87.37
61478;BME280;47345;52.334;10.392;2023-11-22T01:43:21;101979.48;;;2.24;87.39
61478;BME280;47345;52.334;10.392;2023-11-22T01:45:53;101978.13;;;2.21;87.61
61478;BME280;47345;52.334;10.392;2023-11-22T01:48:24;101988.95;;;2.16;87.83
61478;BME280;47345;52.334;10.392;2023-11-22T01:50:55;101987.16;;;2.09;87.67
61478;BME280;47345;52.334;10.392;2023-11-22T01:53:26;101985.60;;;2.01;87.80
61478;BME280;47345;52.334;10.392;2023-11-22T01:55:57;101981.52;;;1.91;87.83
61478;BME280;47345;52.334;10.392;2023-11-22T01:58:28;101986.86;;;1.83;88.10
61478;BME280;47345;52.334;10.392;2023-11-22T02:00:59;101996.83;;;1.77;88.29
61478;BME280;47345;52.334;10.392;2023-11-22T02:03:31;101993.55;;;1.70;88.55
61478;BME280;47345;52.334;10.392;2023-11-22T02:06:01;101990.88;;;1.65;88.60
61478;BME280;47345;52.334;10.392;2023-11-22T02:08:32;101990.54;;;1.60;89.01
61478;BME280;47345;52.334;10.392;2023-11-22T02:11:03;101992.98;;;1.54;89.11
61478;BME280;47345;52.334;10.392;2023-11-22T02:13:34;101990.73;;;1.48;89.19
61478;BME280;47345;52.334;10.392;2023-11-22T02:16:06;101987.20;;;1.45;89.69
61478;BME280;47345;52.334;10.392;2023-11-22T02:18:36;101995.08;;;1.43;89.68
61478;BME280;47345;52.334;10.392;2023-11-22T02:21:07;101997.96;;;1.40;89.94
61478;BME280;47345;52.334;10.392;2023-11-22T02:23:38;101995.98;;;1.38;89.94
61478;BME280;47345;52.334;10.392;2023-11-22T02:26:09;102000.31;;;1.36;89.95
61478;BME280;47345;52.334;10.392;2023-11-22T02:28:40;102000.11;;;1.33;90.11
61478;BME280;47345;52.334;10.392;2023-11-22T02:31:10;101991.32;;;1.30;90.15
61478;BME280;47345;52.334;10.392;2023-11-22T02:33:42;101994.26;;;1.30;90.09
61478;BME280;47345;52.334;10.392;2023-11-22T02:36:13;101989.98;;;1.27;90.12
61478;BME280;47345;52.334;10.392;2023-11-22T02:38:44;101986.20;;;1.25;90.16
61478;BME280;47345;52.334;10.392;2023-11-22T02:41:15;101990.96;;;1.21;90.09
61478;BME280;47345;52.334;10.392;2023-11-22T02:43:46;101997.89;;;1.17;90.33
61478;BME280;47345;52.334;10.392;2023-11-22T02:46:16;102002.46;;;1.13;90.31
61478;BME280;47345;52.334;10.392;2023-11-22T02:48:47;102000.58;;;1.10;90.01
61478;BME280;47345;52.334;10.392;2023-11-22T02:51:18;102003.72;;;1.07;90.39
61478;BME280;47345;52.334;10.392;2023-11-22T02:53:49;102003.73;;;1.01;90.45
61478;BME280;47345;52.334;10.392;2023-11-22T02:56:20;102007.05;;;0.98;90.60
61478;BME280;47345;52.334;10.392;2023-11-22T02:58:51;102007.79;;;0.93;90.33
61478;BME280;47345;52.334;10.392;2023-11-22T03:01:22;102012.30;;;0.87;90.64
61478;BME280;47345;52.334;10.392;2023-11-22T03:03:53;102015.70;;;0.82;90.64
61478;BME280;47345;52.334;10.392;2023-11-22T03:06:23;102020.52;;;0.78;90.57
61478;BME280;47345;52.334;10.392;2023-11-22T03:08:54;102029.77;;;0.74;90.73
61478;BME280;47345;52.334;10.392;2023-11-22T03:11:25;102032.32;;;0.71;90.84
61478;BME280;47345;52.334;10.392;2023-11-22T03:13:57;102032.12;;;0.69;91.01
61478;BME280;47345;52.334;10.392;2023-11-22T03:16:28;102038.56;;;0.64;91.19
61478;BME280;47345;52.334;10.392;2023-11-22T03:18:59;102051.10;;;0.62;91.04
61478;BME280;47345;52.334;10.392;2023-11-22T03:21:31;102059.98;;;0.58;91.11
61478;BME280;47345;52.334;10.392;2023-11-22T03:24:02;102062.67;;;0.55;91.21
61478;BME280;47345;52.334;10.392;2023-11-22T03:26:33;102063.93;;;0.53;91.44
61478;BME280;47345;52.334;10.392;2023-11-22T03:29:04;102068.29;;;0.50;91.31
61478;BME280;47345;52.334;10.392;2023-11-22T03:31:35;102071.17;;;0.47;91.49
61478;BME280;47345;52.334;10.392;2023-11-22T03:34:06;102065.92;;;0.42;91.70
61478;BME280;47345;52.334;10.392;2023-11-22T03:36:36;102075.98;;;0.42;91.80
61478;BME280;47345;52.334;10.392;2023-11-22T03:39:07;102083.16;;;0.40;91.74
61478;BME280;47345;52.334;10.392;2023-11-22T03:41:39;102081.69;;;0.38;91.77
61478;BME280;47345;52.334;10.392;2023-11-22T03:44:10;102080.77;;;0.35;91.95
61478;BME280;47345;52.334;10.392;2023-11-22T03:46:40;102088.80;;;0.34;92.18
61478;BME280;47345;52.334;10.392;2023-11-22T03:49:11;102087.59;;;0.30;91.90
61478;BME280;47345;52.334;10.392;2023-11-22T03:51:43;102096.61;;;0.27;92.25
61478;BME280;47345;52.334;10.392;2023-11-22T03:54:15;102102.60;;;0.26;92.43
61478;BME280;47345;52.334;10.392;2023-11-22T03:56:46;102099.33;;;0.24;92.39
61478;BME280;47345;52.334;10.392;2023-11-22T03:59:16;102097.97;;;0.23;92.66
61478;BME280;47345;52.334;10.392;2023-11-22T04:01:47;102095.37;;;0.22;92.77
61478;BME280;47345;52.334;10.392;2023-11-22T04:04:18;102097.01;;;0.21;92.93
61478;BME280;47345;52.334;10.392;2023-11-22T04:06:49;102101.17;;;0.21;92.73
61478;BME280;47345;52.334;10.392;2023-11-22T04:09:23;102092.85;;;0.19;92.78
61478;BME280;47345;52.334;10.392;2023-11-22T04:11:53;102090.55;;;0.19;92.87
61478;BME280;47345;52.334;10.392;2023-11-22T04:14:24;102084.60;;;0.16;92.93
61478;BME280;47345;52.334;10.392;2023-11-22T04:16:57;102094.86;;;0.19;93.05
61478;BME280;47345;52.334;10.392;2023-11-22T04:19:28;102101.78;;;0.20;92.99
61478;BME280;47345;52.334;10.392;2023-11-22T04:21:59;102105.30;;;0.21;92.97
61478;BME280;47345;52.334;10.392;2023-11-22T04:24:29;102105.27;;;0.21;92.92
61478;BME280;47345;52.334;10.392;2023-11-22T04:27:01;102110.48;;;0.23;92.98
61478;BME280;47345;52.334;10.392;2023-11-22T04:29:32;102110.57;;;0.25;92.91
61478;BME280;47345;52.334;10.392;2023-11-22T04:32:03;102115.60;;;0.27;92.78
61478;BME280;47345;52.334;10.392;2023-11-22T04:34:34;102117.85;;;0.28;92.44
61478;BME280;47345;52.334;10.392;2023-11-22T04:37:05;102123.39;;;0.29;92.25
61478;BME280;47345;52.334;10.392;2023-11-22T04:39:36;102122.86;;;0.29;92.01
61478;BME280;47345;52.334;10.392;2023-11-22T04:42:07;102125.45;;;0.27;91.97
61478;BME280;47345;52.334;10.392;2023-11-22T04:44:37;102131.05;;;0.27;91.87
61478;BME280;47345;52.334;10.392;2023-11-22T04:47:08;102141.06;;;0.25;91.61
61478;BME280;47345;52.334;10.392;2023-11-22T04:49:39;102152.79;;;0.21;91.62
61478;BME280;47345;52.334;10.392;2023-11-22T04:52:10;102152.24;;;0.19;91.65
61478;BME280;47345;52.334;10.392;2023-11-22T04:54:41;102146.36;;;0.16;91.39
61478;BME280;47345;52.334;10.392;2023-11-22T04:57:12;102147.63;;;0.13;91.37
61478;BME280;47345;52.334;10.392;2023-11-22T04:59:42;102146.59;;;0.12;91.48
61478;BME280;47345;52.334;10.392;2023-11-22T05:02:13;102149.27;;;0.10;91.43
61478;BME280;47345;52.334;10.392;2023-11-22T05:04:44;102149.90;;;0.08;91.57
61478;BME280;47345;52.334;10.392;2023-11-22T05:07:17;102143.50;;;0.07;91.49
61478;BME280;47345;52.334;10.392;2023-11-22T05:09:48;102148.40;;;0.06;91.53
61478;BME280;47345;52.334;10.392;2023-11-22T05:12:19;102149.32;;;0.04;91.33
61478;BME280;47345;52.334;10.392;2023-11-22T05:14:50;102141.85;;;0.00;91.34
61478;BME280;47345;52.334;10.392;2023-11-22T05:17:22;102144.61;;;-0.01;91.34
61478;BME280;47345;52.334;10.392;2023-11-22T05:19:53;102141.31;;;-0.03;91.44
61478;BME280;47345;52.334;10.392;2023-11-22T05:22:23;102141.60;;;-0.05;91.39
61478;BME280;47345;52.334;10.392;2023-11-22T05:24:54;102148.08;;;-0.07;91.36
61478;BME280;47345;52.334;10.392;2023-11-22T05:27:25;102162.98;;;-0.10;91.47
61478;BME280;47345;52.334;10.392;2023-11-22T05:29:57;102163.38;;;-0.14;91.48
61478;BME280;47345;52.334;10.392;2023-11-22T05:32:28;102158.02;;;-0.17;91.43
61478;BME280;47345;52.334;10.392;2023-11-22T05:35:00;102163.73;;;-0.19;91.55
61478;BME280;47345;52.334;10.392;2023-11-22T05:37:32;102162.42;;;-0.21;91.61
61478;BME280;47345;52.334;10.392;2023-11-22T05:40:03;102163.91;;;-0.22;91.80
61478;BME280;47345;52.334;10.392;2023-11-22T05:42:34;102168.29;;;-0.23;91.79
61478;BME280;47345;52.334;10.392;2023-11-22T05:45:06;102170.05;;;-0.22;91.81
61478;BME280;47345;52.334;10.392;2023-11-22T05:47:38;102166.71;;;-0.23;91.77
61478;BME280;47345;52.334;10.392;2023-11-22T05:50:09;102164.71;;;-0.26;91.76
61478;BME280;47345;52.334;10.392;2023-11-22T05:52:40;102170.98;;;-0.23;91.93
61478;BME280;47345;52.334;10.392;2023-11-22T05:55:11;102168.25;;;-0.20;91.92
61478;BME280;47345;52.334;10.392;2023-11-22T05:57:43;102169.96;;;-0.18;91.85
61478;BME280;47345;52.334;10.392;2023-11-22T06:00:15;102177.46;;;-0.18;91.64
61478;BME280;47345;52.334;10.392;2023-11-22T06:02:46;102179.01;;;-0.17;91.48
61478;BME280;47345;52.334;10.392;2023-11-22T06:05:17;102180.32;;;-0.18;91.33
61478;BME280;47345;52.334;10.392;2023-11-22T06:07:48;102187.31;;;-0.18;91.21
61478;BME280;47345;52.334;10.392;2023-11-22T06:10:19;102193.47;;;-0.19;91.09
61478;BME280;47345;52.334;10.392;2023-11-22T06:12:50;102203.73;;;-0.19;91.15
61478;BME280;47345;52.334;10.392;2023-11-22T06:15:21;102210.24;;;-0.20;91.12
61478;BME280;47345;52.334;10.392;2023-11-22T06:17:52;102213.15;;;-0.21;90.95
61478;BME280;47345;52.334;10.392;2023-11-22T06:20:23;102223.02;;;-0.23;90.56
61478;BME280;47345;52.334;10.392;2023-11-22T06:22:56;102227.84;;;-0.29;90.23
61478;BME280;47345;52.334;10.392;2023-11-22T06:25:27;102229.08;;;-0.34;90.26
61478;BME280;47345;52.334;10.392;2023-11-22T06:27:58;102234.02;;;-0.36;90.47
61478;BME280;47345;52.334;10.392;2023-11-22T06:30:31;102243.75;;;-0.37;90.70
61478;BME280;47345;52.334;10.392;2023-11-22T06:33:02;102248.58;;;-0.36;90.84
61478;BME280;47345;52.334;10.392;2023-11-22T06:35:32;102249.45;;;-0.36;90.78
61478;BME280;47345;52.334;10.392;2023-11-22T06:38:03;102251.69;;;-0.35;91.03
61478;BME280;47345;52.334;10.392;2023-11-22T06:40:34;102251.52;;;-0.32;91.09
61478;BME280;47345;52.334;10.392;2023-11-22T06:43:05;102245.73;;;-0.31;90.75
61478;BME280;47345;52.334;10.392;2023-11-22T06:45:36;102248.77;;;-0.31;90.41
61478;BME280;47345;52.334;10.392;2023-11-22T06:48:07;102245.45;;;-0.29;90.36
61478;BME280;47345;52.334;10.392;2023-11-22T06:50:38;102244.08;;;-0.28;90.22
61478;BME280;47345;52.334;10.392;2023-11-22T06:53:09;102240.88;;;-0.25;90.15
61478;BME280;47345;52.334;10.392;2023-11-22T06:55:39;102235.61;;;-0.21;90.09
61478;BME280;47345;52.334;10.392;2023-11-22T06:58:10;102231.27;;;-0.18;90.21
61478;BME280;47345;52.334;10.392;2023-11-22T07:00:41;102231.20;;;-0.14;90.08
61478;BME280;47345;52.334;10.392;2023-11-22T07:03:13;102228.56;;;-0.09;90.18
61478;BME280;47345;52.334;10.392;2023-11-22T07:05:45;102230.07;;;-0.05;89.87
61478;BME280;47345;52.334;10.392;2023-11-22T07:08:16;102230.73;;;-0.02;89.76
61478;BME280;47345;52.334;10.392;2023-11-22T07:10:47;102230.84;;;0.02;89.68
61478;BME280;47345;52.334;10.392;2023-11-22T07:13:19;102236.08;;;0.07;89.54
61478;BME280;47345;52.334;10.392;2023-11-22T07:15:50;102232.37;;;0.12;89.50
61478;BME280;47345;52.334;10.392;2023-11-22T07:18:21;102232.13;;;0.18;89.57
61478;BME280;47345;52.334;10.392;2023-11-22T07:20:53;102223.77;;;0.25;89.42
61478;BME280;47345;52.334;10.392;2023-11-22T07:23:24;102222.02;;;0.33;89.57
61478;BME280;47345;52.334;10.392;2023-11-22T07:25:58;102226.11;;;0.38;89.16
61478;BME280;47345;52.334;10.392;2023-11-22T07:28:29;102225.66;;;0.45;89.09
61478;BME280;47345;52.334;10.392;2023-11-22T07:31:01;102227.10;;;0.53;89.06
61478;BME280;47345;52.334;10.392;2023-11-22T07:33:32;102224.67;;;0.65;88.87
61478;BME280;47345;52.334;10.392;2023-11-22T07:36:02;102218.48;;;0.80;89.16
61478;BME280;47345;52.334;10.392;2023-11-22T07:38:33;102218.30;;;0.95;89.20
61478;BME280;47345;52.334;10.392;2023-11-22T07:41:06;102219.62;;;1.07;88.49
61478;BME280;47345;52.334;10.392;2023-11-22T07:43:37;102210.67;;;1.17;88.35
61478;BME280;47345;52.334;10.392;2023-11-22T07:46:09;102218.55;;;1.25;87.81
61478;BME280;47345;52.334;10.392;2023-11-22T07:48:43;102226.73;;;1.31;87.80
61478;BME280;47345;52.334;10.392;2023-11-22T07:51:16;102210.98;;;1.38;87.44
61478;BME280;47345;52.334;10.392;2023-11-22T07:53:47;102213.62;;;1.41;86.87
61478;BME280;47345;52.334;10.392;2023-11-22T07:56:18;102216.73;;;1.43;86.48
61478;BME280;47345;52.334;10.392;2023-11-22T07:58:49;102227.23;;;1.47;86.47
61478;BME280;47345;52.334;10.392;2023-11-22T08:01:20;102243.66;;;1.52;85.88
61478;BME280;47345;52.334;10.392;2023-11-22T08:03:50;102236.92;;;1.58;85.31
61478;BME280;47345;52.334;10.392;2023-11-22T08:06:21;102237.52;;;1.64;84.65
61478;BME280;47345;52.334;10.392;2023-11-22T08:08:52;102234.31;;;1.69;84.05
61478;BME280;47345;52.334;10.392;2023-11-22T08:11:23;102216.41;;;1.75;83.50
61478;BME280;47345;52.334;10.392;2023-11-22T08:13:54;102211.23;;;1.82;83.27
61478;BME280;47345;52.334;10.392;2023-11-22T08:16:29;102219.23;;;1.88;82.92
61478;BME280;47345;52.334;10.392;2023-11-22T08:19:00;102223.70;;;1.94;82.34
61478;BME280;47345;52.334;10.392;2023-11-22T08:21:31;102229.55;;;1.97;81.90
61478;BME280;47345;52.334;10.392;2023-11-22T08:24:02;102236.67;;;2.00;81.65
61478;BME280;47345;52.334;10.392;2023-11-22T08:26:33;102239.70;;;2.03;81.19
61478;BME280;47345;52.334;10.392;2023-11-22T08:29:04;102249.07;;;2.05;80.51
61478;BME280;47345;52.334;10.392;2023-11-22T08:31:34;102259.34;;;2.06;79.95
61478;BME280;47345;52.334;10.392;2023-11-22T08:34:06;102268.92;;;2.10;80.06
61478;BME280;47345;52.334;10.392;2023-11-22T08:36:37;102282.55;;;2.15;79.33
61478;BME280;47345;52.334;10.392;2023-11-22T08:39:08;102294.53;;;2.21;79.69
61478;BME280;47345;52.334;10.392;2023-11-22T08:41:38;102303.70;;;2.29;79.31
61478;BME280;47345;52.334;10.392;2023-11-22T08:44:09;102313.77;;;2.32;78.55
61478;BME280;47345;52.334;10.392;2023-11-22T08:46:40;102315.80;;;2.36;78.37
61478;BME280;47345;52.334;10.392;2023-11-22T08:49:10;102318.14;;;2.46;78.24
61478;BME280;47345;52.334;10.392;2023-11-22T08:51:41;102309.23;;;2.54;77.59
61478;BME280;47345;52.334;10.392;2023-11-22T08:54:12;102309.58;;;2.59;77.09
61478;BME280;47345;52.334;10.392;2023-11-22T08:56:43;102302.25;;;2.65;76.91
61478;BME280;47345;52.334;10.392;2023-11-22T08:59:16;102291.40;;;2.73;76.56
61478;BME280;47345;52.334;10.392;2023-11-22T09:01:47;102289.33;;;2.76;75.98
61478;BME280;47345;52.334;10.392;2023-11-22T09:04:18;102279.64;;;2.81;75.78
61478;BME280;47345;52.334;10.392;2023-11-22T09:06:49;102273.38;;;2.87;75.33
61478;BME280;47345;52.334;10.392;2023-11-22T09:09:19;102282.48;;;2.91;74.99
61478;BME280;47345;52.334;10.392;2023-11-22T09:11:52;102284.04;;;2.94;74.94
61478;BME280;47345;52.334;10.392;2023-11-22T09:14:23;102290.88;;;3.01;74.73
61478;BME280;47345;52.334;10.392;2023-11-22T09:16:54;102289.27;;;3.06;73.99
61478;BME280;47345;52.334;10.392;2023-11-22T09:19:25;102290.83;;;3.06;72.84
61478;BME280;47345;52.334;10.392;2023-11-22T09:21:55;102289.44;;;3.08;72.70
61478;BME280;47345;52.334;10.392;2023-11-22T09:24:27;102276.91;;;3.09;72.27
61478;BME280;47345;52.334;10.392;2023-11-22T09:26:57;102268.80;;;3.14;71.87
61478;BME280;47345;52.334;10.392;2023-11-22T09:29:29;102271.92;;;3.16;71.63
61478;BME280;47345;52.334;10.392;2023-11-22T09:32:00;102275.39;;;3.22;71.72
61478;BME280;47345;52.334;10.392;2023-11-22T09:34:31;102276.27;;;3.27;71.22
61478;BME280;47345;52.334;10.392;2023-11-22T09:37:02;102290.02;;;3.33;71.12
61478;BME280;47345;52.334;10.392;2023-11-22T09:39:33;102289.43;;;3.41;71.03
61478;BME280;47345;52.334;10.392;2023-11-22T09:42:05;102295.90;;;3.48;70.79
61478;BME280;47345;52.334;10.392;2023-11-22T09:44:36;102306.52;;;3.50;70.05
61478;BME280;47345;52.334;10.392;2023-11-22T09:47:07;102294.38;;;3.56;70.39
61478;BME280;47345;52.334;10.392;2023-11-22T09:49:40;102273.14;;;3.64;70.40
61478;BME280;47345;52.334;10.392;2023-11-22T09:52:17;102274.23;;;3.73;70.22
61478;BME280;47345;52.334;10.392;2023-11-22T09:54:51;102270.52;;;3.81;69.99
61478;BME280;47345;52.334;10.392;2023-11-22T09:57:24;102263.27;;;3.88;69.63
61478;BME280;47345;52.334;10.392;2023-11-22T09:59:57;102265.73;;;3.96;69.06
61478;BME280;47345;52.334;10.392;2023-11-22T10:02:28;102271.89;;;4.02;69.30
61478;BME280;47345;52.334;10.392;2023-11-22T10:05:00;102273.40;;;4.10;68.94
61478;BME280;47345;52.334;10.392;2023-11-22T10:07:30;102274.64;;;4.15;68.63
61478;BME280;47345;52.334;10.392;2023-11-22T10:10:01;102270.66;;;4.17;68.37
61478;BME280;47345;52.334;10.392;2023-11-22T10:12:34;102274.80;;;4.24;68.28
61478;BME280;47345;52.334;10.392;2023-11-22T10:15:16;102282.87;;;4.29;68.14
61478;BME280;47345;52.334;10.392;2023-11-22T10:17:55;102295.35;;;4.35;67.75
61478;BME280;47345;52.334;10.392;2023-11-22T10:20:37;102296.95;;;4.40;67.84
61478;BME280;47345;52.334;10.392;2023-11-22T10:23:11;102296.76;;;4.45;67.05
61478;BME280;47345;52.334;10.392;2023-11-22T10:25:47;102292.85;;;4.50;66.66
61478;BME280;47345;52.334;10.392;2023-11-22T10:28:19;102296.61;;;4.59;66.87
61478;BME280;47345;52.334;10.392;2023-11-22T10:30:51;102295.85;;;4.64;66.67
61478;BME280;47345;52.334;10.392;2023-11-22T10:33:21;102303.02;;;4.69;66.56
61478;BME280;47345;52.334;10.392;2023-11-22T10:35:53;102309.02;;;4.69;66.30
61478;BME280;47345;52.334;10.392;2023-11-22T10:38:24;102314.47;;;4.68;66.32
61478;BME280;47345;52.334;10.392;2023-11-22T10:40:56;102312.83;;;4.70;66.05
61478;BME280;47345;52.334;10.392;2023-11-22T10:43:29;102320.15;;;4.69;65.51
61478;BME280;47345;52.334;10.392;2023-11-22T10:46:03;102330.29;;;4.74;65.33
61478;BME280;47345;52.334;10.392;2023-11-22T10:48:34;102329.13;;;4.75;65.01
61478;BME280;47345;52.334;10.392;2023-11-22T10:51:06;102310.30;;;4.79;65.52
61478;BME280;47345;52.334;10.392;2023-11-22T10:53:48;102301.39;;;4.84;65.18
61478;BME280;47345;52.334;10.392;2023-11-22T10:56:20;102299.98;;;4.85;65.34
61478;BME280;47345;52.334;10.392;2023-11-22T10:58:55;102305.40;;;4.84;64.81
61478;BME280;47345;52.334;10.392;2023-11-22T11:01:27;102303.48;;;4.81;64.90
61478;BME280;47345;52.334;10.392;2023-11-22T11:04:08;102297.27;;;4.81;64.84
61478;BME280;47345;52.334;10.392;2023-11-22T11:06:41;102283.12;;;4.80;64.26
61478;BME280;47345;52.334;10.392;2023-11-22T11:09:16;102280.19;;;4.78;63.99
61478;BME280;47345;52.334;10.392;2023-11-22T11:11:50;102286.55;;;4.80;63.88
61478;BME280;47345;52.334;10.392;2023-11-22T11:14:21;102287.06;;;4.84;64.18
61478;BME280;47345;52.334;10.392;2023-11-22T11:16:53;102274.00;;;4.90;64.23
61478;BME280;47345;52.334;10.392;2023-11-22T11:19:28;102253.50;;;4.93;64.36
61478;BME280;47345;52.334;10.392;2023-11-22T11:22:01;102248.98;;;5.01;64.69
61478;BME280;47345;52.334;10.392;2023-11-22T11:24:40;102245.13;;;5.06;64.23
61478;BME280;47345;52.334;10.392;2023-11-22T11:27:14;102247.89;;;5.07;63.67
61478;BME280;47345;52.334;10.392;2023-11-22T11:29:48;102240.88;;;5.07;63.28
61478;BME280;47345;52.334;10.392;2023-11-22T11:32:31;102234.15;;;5.03;62.74
61478;BME280;47345;52.334;10.392;2023-11-22T11:35:06;102230.17;;;5.01;62.88
61478;BME280;47345;52.334;10.392;2023-11-22T11:37:38;102239.78;;;5.00;62.75
61478;BME280;47345;52.334;10.392;2023-11-22T11:40:28;102238.39;;;5.00;62.59
61478;BME280;47345;52.334;10.392;2023-11-22T11:43:02;102228.39;;;5.07;62.59
61478;BME280;47345;52.334;10.392;2023-11-22T11:45:36;102214.80;;;5.11;62.48
61478;BME280;47345;52.334;10.392;2023-11-22T11:48:08;102211.36;;;5.18;61.99
61478;BME280;47345;52.334;10.392;2023-11-22T11:50:39;102211.92;;;5.22;62.14
61478;BME280;47345;52.334;10.392;2023-11-22T11:53:10;102200.06;;;5.29;61.74
61478;BME280;47345;52.334;10.392;2023-11-22T11:55:41;102194.77;;;5.34;61.97
61478;BME280;47345;52.334;10.392;2023-11-22T11:58:15;102196.92;;;5.36;61.43
61478;BME280;47345;52.334;10.392;2023-11-22T12:00:46;102187.99;;;5.35;61.26
61478;BME280;47345;52.334;10.392;2023-11-22T12:03:17;102171.41;;;5.36;60.99
61478;BME280;47345;52.334;10.392;2023-11-22T12:05:51;102157.20;;;5.37;61.08
61478;BME280;47345;52.334;10.392;2023-11-22T12:08:22;102150.63;;;5.38;61.09
61478;BME280;47345;52.334;10.392;2023-11-22T12:10:57;102144.65;;;5.38;60.45
61478;BME280;47345;52.334;10.392;2023-11-22T12:13:28;102132.46;;;5.34;60.64
61478;BME280;47345;52.334;10.392;2023-11-22T12:15:59;102117.73;;;5.29;60.60
61478;BME280;47345;52.334;10.392;2023-11-22T12:18:40;102115.72;;;5.24;60.79
61478;BME280;47345;52.334;10.392;2023-11-22T12:21:13;102104.25;;;5.18;60.68
61478;BME280;47345;52.334;10.392;2023-11-22T12:23:46;102099.44;;;5.17;60.76
61478;BME280;47345;52.334;10.392;2023-11-22T12:26:19;102093.19;;;5.16;60.27
61478;BME280;47345;52.334;10.392;2023-11-22T12:28:50;102086.52;;;5.14;60.47
61478;BME280;47345;52.334;10.392;2023-11-22T12:31:34;102087.15;;;5.13;60.26
61478;BME280;47345;52.334;10.392;2023-11-22T12:34:06;102098.73;;;5.11;60.59
61478;BME280;47345;52.334;10.392;2023-11-22T12:36:39;102088.31;;;5.10;60.75
61478;BME280;47345;52.334;10.392;2023-11-22T12:39:11;102077.91;;;5.09;60.48
61478;BME280;47345;52.334;10.392;2023-11-22T12:41:47;102080.52;;;5.06;60.36
61478;BME280;47345;52.334;10.392;2023-11-22T12:44:48;102080.78;;;5.03;59.99
61478;BME280;47345;52.334;10.392;2023-11-22T12:47:32;102080.23;;;5.03;59.91
61478;BME280;47345;52.334;10.392;2023-11-22T12:50:07;102093.61;;;4.99;59.48
61478;BME280;47345;52.334;10.392;2023-11-22T12:52:59;102121.57;;;4.94;59.71
61478;BME280;47345;52.334;10.392;2023-11-22T12:55:30;102145.36;;;4.91;59.55
61478;BME280;47345;52.334;10.392;2023-11-22T12:58:03;102137.48;;;4.85;59.55
61478;BME280;47345;52.334;10.392;2023-11-22T13:00:34;102128.02;;;4.86;59.79
61478;BME280;47345;52.334;10.392;2023-11-22T13:03:06;102129.14;;;4.84;60.05
61478;BME280;47345;52.334;10.392;2023-11-22T13:05:40;102124.02;;;4.80;59.82
61478;BME280;47345;52.334;10.392;2023-11-22T13:08:12;102113.66;;;4.71;59.67
61478;BME280;47345;52.334;10.392;2023-11-22T13:10:45;102108.84;;;4.64;59.49